Time;durP1;ratioP1;P1;durP2;ratioP2;P2;SDS_P1;SDS_P2;PMS_P1;PMS_P2;Temp;Humidity;BMP_temperature;BMP_pressure;BME280_temperature;BME280_humidity;BME280_pressure;Samples;Min_cycle;Max_cycle;Signal;HPM_P1;HPM_P2
2022/01/13 00:01:50;;;;;;;226.73;32.97;;;5.30;99.90;;;;;;5115322;27;20054;-72
2022/01/13 00:04:16;;;;;;;242.50;35.70;;;5.10;99.90;;;;;;5106581;28;20044;-72
2022/01/13 00:06:42;;;;;;;235.32;32.40;;;5.20;99.90;;;;;;5123452;28;20103;-72
2022/01/13 00:09:09;;;;;;;225.65;32.85;;;5.20;99.90;;;;;;5124660;28;20067;-72
2022/01/13 00:11:35;;;;;;;236.80;35.58;;;5.10;99.90;;;;;;5113460;28;20040;-72
2022/01/13 00:25:04;;;;;;;318.52;40.60;;;5.20;99.90;;;;;;5054747;28;20163;-72
2022/01/13 00:27:30;;;;;;;309.90;37.13;;;5.10;99.90;;;;;;5081333;28;20048;-72
2022/01/13 00:29:59;;;;;;;326.88;38.67;;;5.00;99.90;;;;;;5060199;28;20093;-72
2022/01/13 00:32:28;;;;;;;286.00;36.85;;;5.00;99.90;;;;;;5077203;28;20541;-72
2022/01/13 00:34:54;;;;;;;252.63;34.70;;;5.10;99.90;;;;;;5063534;28;20053;-72
2022/01/13 00:37:20;;;;;;;296.10;37.72;;;5.10;99.90;;;;;;5061684;28;20536;-72
2022/01/13 00:39:46;;;;;;;253.25;34.45;;;5.00;99.90;;;;;;5065401;28;20064;-72
2022/01/13 00:42:11;;;;;;;220.65;33.03;;;5.10;99.90;;;;;;5072267;28;20067;-72
2022/01/13 00:44:38;;;;;;;212.48;31.23;;;5.00;99.90;;;;;;5078483;28;20460;-72
2022/01/13 00:47:08;;;;;;;217.05;30.48;;;5.20;99.90;;;;;;5060845;28;20108;-72
2022/01/13 00:49:34;;;;;;;259.80;32.10;;;5.20;99.90;;;;;;5075948;28;20092;-72
2022/01/13 00:52:00;;;;;;;298.60;34.22;;;5.10;99.90;;;;;;5070822;28;20049;-72
2022/01/13 00:54:26;;;;;;;300.48;32.22;;;5.00;99.90;;;;;;5077589;28;20052;-72
2022/01/13 00:56:52;;;;;;;265.08;33.28;;;5.10;99.90;;;;;;5067566;28;20052;-72
2022/01/13 00:59:17;;;;;;;292.40;33.38;;;5.10;99.90;;;;;;5076319;28;20131;-72
2022/01/13 01:01:49;;;;;;;234.07;31.30;;;5.00;99.90;;;;;;5100387;28;20044;-72
2022/01/13 01:04:15;;;;;;;254.18;31.27;;;5.10;99.90;;;;;;5107228;28;20047;-72
2022/01/13 01:06:41;;;;;;;282.80;32.85;;;4.90;99.90;;;;;;5102730;28;20050;-72
2022/01/13 01:09:14;;;;;;;234.35;29.88;;;5.10;99.90;;;;;;5111636;28;20079;-72
2022/01/13 01:11:40;;;;;;;268.80;30.02;;;5.00;99.90;;;;;;5123808;28;20050;-72
2022/01/13 01:14:07;;;;;;;239.52;29.92;;;5.10;99.90;;;;;;5123558;28;20050;-72
2022/01/13 01:16:35;;;;;;;229.27;29.70;;;5.10;99.90;;;;;;5105866;28;20039;-72
2022/01/13 01:19:06;;;;;;;210.23;29.70;;;5.00;99.90;;;;;;5111521;28;20103;-72
2022/01/13 01:29:04;;;;;;;280.67;30.55;;;4.90;99.90;;;;;;5110997;28;20056;-72
2022/01/13 01:31:33;;;;;;;209.85;28.60;;;5.00;99.90;;;;;;5122976;28;20067;-72
2022/01/13 01:36:45;;;;;;;234.77;28.48;;;5.00;99.90;;;;;;5124415;28;20054;-72
2022/01/13 01:39:11;;;;;;;203.85;30.08;;;4.90;99.90;;;;;;5123399;28;20045;-72
2022/01/13 01:41:44;;;;;;;184.85;27.15;;;5.10;99.90;;;;;;5106222;28;20051;-72
2022/01/13 01:44:13;;;;;;;214.20;28.85;;;5.00;99.90;;;;;;5124218;28;20040;-73
2022/01/13 01:46:42;;;;;;;206.68;26.80;;;5.10;99.90;;;;;;5106665;28;20044;-72
2022/01/13 01:49:24;;;;;;;188.57;27.05;;;5.00;99.90;;;;;;5120804;28;20078;-72
2022/01/13 01:51:56;;;;;;;201.13;26.90;;;5.10;99.90;;;;;;5106079;28;20040;-72
2022/01/13 01:54:23;;;;;;;205.25;27.10;;;5.10;99.90;;;;;;5107537;28;20058;-72
2022/01/13 01:56:49;;;;;;;227.32;29.20;;;4.90;99.90;;;;;;5107658;28;20044;-72
2022/01/13 01:59:19;;;;;;;209.73;27.45;;;4.90;99.90;;;;;;5121064;28;20559;-72
2022/01/13 02:01:47;;;;;;;246.33;30.10;;;5.00;99.90;;;;;;5114572;28;20046;-72
2022/01/13 02:04:13;;;;;;;244.90;28.58;;;5.00;99.90;;;;;;5117258;28;20805;-72
2022/01/13 02:06:40;;;;;;;186.48;26.98;;;5.00;99.90;;;;;;5109447;28;20054;-72
2022/01/13 02:09:08;;;;;;;245.75;29.80;;;5.10;99.90;;;;;;5106044;28;20086;-72
2022/01/13 02:11:41;;;;;;;244.82;29.63;;;5.20;99.90;;;;;;5104959;28;20048;-72
2022/01/13 02:17:04;;;;;;;205.70;30.73;;;5.00;99.90;;;;;;5116415;28;20048;-72
2022/01/13 02:19:30;;;;;;;193.15;28.02;;;5.10;99.90;;;;;;5105838;28;20058;-72
2022/01/13 02:21:57;;;;;;;190.02;29.17;;;5.10;99.90;;;;;;5127252;28;20529;-72
2022/01/13 02:24:22;;;;;;;192.18;28.83;;;5.00;99.90;;;;;;5115081;28;20100;-72
2022/01/13 02:26:48;;;;;;;173.50;29.23;;;5.20;99.90;;;;;;5121725;27;20042;-72
2022/01/13 02:29:14;;;;;;;174.20;26.95;;;5.10;99.90;;;;;;5119832;28;20108;-72
2022/01/13 02:31:40;;;;;;;196.20;29.55;;;5.20;99.90;;;;;;5108018;28;20078;-72
2022/01/13 02:34:05;;;;;;;158.80;26.40;;;5.10;99.90;;;;;;5122888;28;20089;-72
2022/01/13 02:36:32;;;;;;;154.85;26.48;;;5.10;99.90;;;;;;5106008;28;20060;-72
2022/01/13 02:39:02;;;;;;;133.93;23.65;;;5.10;99.90;;;;;;5109750;28;20415;-72
2022/01/13 02:41:28;;;;;;;157.18;25.80;;;5.20;99.90;;;;;;5117187;28;20044;-72
2022/01/13 02:43:55;;;;;;;161.07;27.58;;;5.20;99.90;;;;;;5120133;28;20040;-72
2022/01/13 02:49:05;;;;;;;179.57;29.13;;;5.20;99.90;;;;;;5108494;28;20085;-72
2022/01/13 02:51:30;;;;;;;206.23;28.73;;;5.10;99.90;;;;;;5109248;28;20040;-72
2022/01/13 02:53:56;;;;;;;179.90;28.35;;;5.00;99.90;;;;;;5142663;27;20109;-72
2022/01/13 02:56:23;;;;;;;180.15;28.40;;;5.10;99.90;;;;;;5104556;28;20404;-72
2022/01/13 02:58:49;;;;;;;157.73;27.75;;;5.00;99.90;;;;;;5124095;28;20216;-72
2022/01/13 03:01:15;;;;;;;153.60;26.88;;;5.10;99.90;;;;;;5125273;28;20385;-72
2022/01/13 03:03:42;;;;;;;134.13;25.63;;;5.10;99.90;;;;;;5119881;28;20087;-72
2022/01/13 03:06:11;;;;;;;129.85;25.00;;;5.10;99.90;;;;;;5118245;28;20112;-72
2022/01/13 03:08:38;;;;;;;138.18;24.67;;;5.00;99.90;;;;;;5108264;28;20047;-72
2022/01/13 03:11:05;;;;;;;148.07;27.15;;;5.00;99.90;;;;;;5105011;28;20040;-72
2022/01/13 03:13:31;;;;;;;134.88;26.77;;;5.10;99.90;;;;;;5106141;28;20044;-72
2022/01/13 03:15:57;;;;;;;137.57;27.45;;;5.00;99.90;;;;;;5120402;28;20036;-72
2022/01/13 03:18:22;;;;;;;134.85;25.73;;;5.20;99.90;;;;;;5126448;28;20047;-72
2022/01/13 03:20:48;;;;;;;128.55;26.73;;;5.20;99.90;;;;;;5106243;28;20102;-72
2022/01/13 03:23:18;;;;;;;136.35;26.05;;;5.00;99.90;;;;;;5106146;28;20105;-72
2022/01/13 03:25:45;;;;;;;116.22;25.70;;;5.00;99.90;;;;;;5089624;28;20043;-72
2022/01/13 03:28:17;;;;;;;126.80;25.48;;;5.20;99.90;;;;;;5126199;28;20044;-72
2022/01/13 03:30:44;;;;;;;141.45;26.52;;;5.20;99.90;;;;;;5105573;28;20132;-72
2022/01/13 03:33:12;;;;;;;125.75;25.90;;;5.20;99.90;;;;;;5106833;28;20051;-72
2022/01/13 03:35:39;;;;;;;126.95;26.50;;;5.10;99.90;;;;;;5107914;28;20082;-72
2022/01/13 03:38:06;;;;;;;135.65;25.92;;;5.00;99.90;;;;;;5107875;28;20051;-72
2022/01/13 03:40:33;;;;;;;130.85;24.83;;;5.00;99.90;;;;;;5114329;28;20051;-72
2022/01/13 03:43:00;;;;;;;129.68;26.60;;;5.00;99.90;;;;;;5115324;28;20047;-72
2022/01/13 03:45:27;;;;;;;136.20;24.65;;;5.00;99.90;;;;;;5104682;28;20047;-72
2022/01/13 03:47:54;;;;;;;136.52;26.98;;;5.20;99.90;;;;;;5141899;27;20052;-72
2022/01/13 03:50:19;;;;;;;135.68;25.85;;;5.00;99.90;;;;;;5102936;28;20078;-72
2022/01/13 03:52:57;;;;;;;146.07;25.40;;;5.00;99.90;;;;;;5113952;28;20040;-72
2022/01/13 03:55:35;;;;;;;159.20;25.38;;;5.10;99.90;;;;;;5111535;28;20040;-72
2022/01/13 03:58:12;;;;;;;149.98;26.13;;;5.00;99.90;;;;;;5111559;28;20054;-72
2022/01/13 04:00:57;;;;;;;149.38;24.55;;;5.20;99.90;;;;;;5106935;28;20051;-72
2022/01/13 04:03:22;;;;;;;177.65;25.70;;;5.00;99.90;;;;;;5116582;28;20043;-72
2022/01/13 04:06:09;;;;;;;165.15;26.73;;;5.00;99.90;;;;;;5118767;28;20036;-72
2022/01/13 04:08:35;;;;;;;167.85;24.90;;;5.00;99.90;;;;;;5117519;28;20035;-72
2022/01/13 04:11:03;;;;;;;168.27;24.58;;;5.10;99.90;;;;;;5106363;28;20095;-72
2022/01/13 04:16:08;;;;;;;171.27;26.65;;;5.10;99.90;;;;;;5106801;28;20059;-72
2022/01/13 04:18:34;;;;;;;191.77;29.08;;;5.10;99.90;;;;;;5116005;28;20040;-72
2022/01/13 04:21:01;;;;;;;208.23;28.05;;;5.00;99.90;;;;;;5122352;27;20032;-72
2022/01/13 04:23:27;;;;;;;202.15;29.23;;;5.00;99.90;;;;;;5106676;28;20047;-72
2022/01/13 04:25:53;;;;;;;196.25;29.17;;;5.00;99.90;;;;;;5113596;28;20160;-72
2022/01/13 04:28:25;;;;;;;198.45;27.58;;;5.10;99.90;;;;;;5104995;28;20078;-72
2022/01/13 04:30:53;;;;;;;178.68;28.42;;;5.00;99.90;;;;;;5104094;28;20130;-72
2022/01/13 04:33:19;;;;;;;158.68;25.65;;;5.00;99.90;;;;;;5105608;28;20044;-72
2022/01/13 04:35:45;;;;;;;144.05;25.83;;;5.00;99.90;;;;;;5124770;28;20066;-72
2022/01/13 04:38:11;;;;;;;179.38;27.58;;;5.00;99.90;;;;;;5104073;28;20080;-72
2022/01/13 04:40:45;;;;;;;203.13;27.05;;;4.80;99.90;;;;;;5124678;28;20040;-72
2022/01/13 04:43:12;;;;;;;184.57;27.77;;;4.90;99.90;;;;;;5106915;28;20118;-72
2022/01/13 04:45:38;;;;;;;200.63;29.02;;;4.80;99.90;;;;;;5121520;28;20525;-72
2022/01/13 04:48:05;;;;;;;199.32;29.23;;;4.80;99.90;;;;;;5103254;28;20043;-72
2022/01/13 04:50:31;;;;;;;196.32;28.25;;;4.80;99.90;;;;;;5105196;28;20061;-72
2022/01/13 04:52:56;;;;;;;216.60;31.27;;;4.90;99.90;;;;;;5104935;28;20064;-72
2022/01/13 04:55:25;;;;;;;234.27;32.72;;;5.00;99.90;;;;;;5119748;28;20047;-72
2022/01/13 04:57:52;;;;;;;163.65;25.52;;;4.90;99.90;;;;;;5104403;28;20055;-72
2022/01/13 05:00:18;;;;;;;195.00;28.35;;;4.90;99.90;;;;;;5120985;28;20402;-72
2022/01/13 05:02:44;;;;;;;183.35;26.42;;;4.80;99.90;;;;;;5102850;28;20044;-72
2022/01/13 05:05:10;;;;;;;183.73;28.10;;;4.80;99.90;;;;;;5105176;28;20527;-72
2022/01/13 05:07:36;;;;;;;197.50;27.83;;;4.80;99.90;;;;;;5118078;28;20052;-72
2022/01/13 05:10:03;;;;;;;215.57;29.45;;;4.80;99.90;;;;;;5106798;28;20043;-72
2022/01/13 05:12:35;;;;;;;182.43;27.50;;;4.80;99.90;;;;;;5106708;28;20046;-72
2022/01/13 05:15:06;;;;;;;198.05;29.05;;;4.70;99.90;;;;;;5118761;28;20043;-72
2022/01/13 05:20:24;;;;;;;166.23;27.48;;;4.80;99.90;;;;;;5068110;28;20411;-72
2022/01/13 05:22:50;;;;;;;191.40;28.45;;;4.70;99.90;;;;;;5104773;28;20051;-72
2022/01/13 05:25:17;;;;;;;163.18;26.98;;;4.80;99.90;;;;;;5126832;28;20074;-72
2022/01/13 05:27:43;;;;;;;172.55;27.38;;;4.80;99.90;;;;;;5117521;28;20058;-72
2022/01/13 05:30:10;;;;;;;187.48;27.73;;;4.70;99.90;;;;;;5105845;28;20048;-72
2022/01/13 05:32:36;;;;;;;165.68;27.25;;;4.80;99.90;;;;;;5109232;28;20048;-72
2022/01/13 05:35:02;;;;;;;200.00;28.73;;;4.80;99.90;;;;;;5095536;27;20055;-73
2022/01/13 05:37:28;;;;;;;185.75;28.23;;;4.80;99.90;;;;;;5108431;28;20055;-73
2022/01/13 05:39:54;;;;;;;181.95;27.17;;;4.80;99.90;;;;;;5121598;28;20047;-73
2022/01/13 05:42:20;;;;;;;168.05;27.35;;;4.70;99.90;;;;;;5107871;28;20047;-73
2022/01/13 05:44:46;;;;;;;161.77;28.35;;;4.80;99.90;;;;;;5104223;27;20074;-72
2022/01/13 05:47:13;;;;;;;190.65;28.00;;;4.70;99.90;;;;;;5114019;27;20032;-72
2022/01/13 05:49:41;;;;;;;173.35;27.77;;;4.80;99.90;;;;;;5120788;28;20047;-72
2022/01/13 05:52:08;;;;;;;177.68;28.27;;;4.70;99.90;;;;;;5128231;27;20044;-73
2022/01/13 05:54:34;;;;;;;158.63;26.98;;;4.70;99.90;;;;;;5101742;28;20561;-74
2022/01/13 05:56:59;;;;;;;201.73;30.63;;;4.80;99.90;;;;;;5110006;27;20052;-72
2022/01/13 05:59:25;;;;;;;193.80;29.50;;;4.70;99.90;;;;;;5101496;28;20044;-72
2022/01/13 06:01:51;;;;;;;213.10;30.75;;;4.70;99.90;;;;;;5127209;27;20104;-71
2022/01/13 06:04:17;;;;;;;201.32;30.27;;;4.70;99.90;;;;;;5122307;27;20063;-72
2022/01/13 06:06:43;;;;;;;201.02;29.73;;;4.70;99.90;;;;;;5108329;27;20109;-72
2022/01/13 06:09:09;;;;;;;184.15;28.27;;;4.80;99.90;;;;;;5103084;28;20090;-72
2022/01/13 06:11:40;;;;;;;194.88;29.42;;;4.70;99.90;;;;;;5125461;27;20546;-72
2022/01/13 06:14:07;;;;;;;182.02;27.77;;;4.70;99.90;;;;;;5101543;28;20063;-71
2022/01/13 06:16:33;;;;;;;181.05;29.08;;;4.80;99.90;;;;;;5108254;28;20284;-72
2022/01/13 06:18:59;;;;;;;186.07;29.77;;;4.70;99.90;;;;;;5100938;28;20275;-72
2022/01/13 06:21:24;;;;;;;190.90;31.50;;;4.80;99.90;;;;;;5103060;27;20047;-69
2022/01/13 06:23:50;;;;;;;164.98;29.33;;;4.70;99.90;;;;;;5107287;28;20075;-70
2022/01/13 06:26:16;;;;;;;169.02;30.08;;;4.70;99.90;;;;;;5126963;27;20079;-70
2022/01/13 06:28:41;;;;;;;153.80;29.23;;;4.70;99.90;;;;;;5103114;28;20058;-69
2022/01/13 06:31:07;;;;;;;150.77;27.35;;;4.80;99.90;;;;;;5125248;27;20047;-69
2022/01/13 06:33:34;;;;;;;127.43;27.98;;;4.80;99.90;;;;;;5134529;27;20035;-69
2022/01/13 06:36:00;;;;;;;134.35;26.30;;;4.80;99.90;;;;;;5071490;28;20143;-70
2022/01/13 06:38:25;;;;;;;129.65;27.73;;;4.70;99.90;;;;;;5109030;28;20082;-70
2022/01/13 06:40:52;;;;;;;144.70;26.13;;;4.80;99.90;;;;;;5097568;27;20121;-70
2022/01/13 06:43:18;;;;;;;120.60;25.92;;;4.70;99.90;;;;;;5110011;28;20097;-70
2022/01/13 06:45:44;;;;;;;155.13;28.33;;;4.80;99.90;;;;;;5126938;27;20051;-70
2022/01/13 06:48:10;;;;;;;143.57;26.73;;;4.70;99.90;;;;;;5102663;28;20044;-70
2022/01/13 06:50:36;;;;;;;126.15;25.33;;;4.80;99.90;;;;;;5114172;27;20622;-70
2022/01/13 06:53:02;;;;;;;123.57;25.35;;;4.80;99.90;;;;;;5113307;28;20069;-69
2022/01/13 06:55:28;;;;;;;135.15;26.63;;;4.80;99.90;;;;;;5095457;27;20063;-70
2022/01/13 06:57:54;;;;;;;135.63;25.33;;;4.80;99.90;;;;;;5099658;28;20059;-70
2022/01/13 07:00:21;;;;;;;134.98;26.05;;;4.70;99.90;;;;;;5092971;27;20048;-70
2022/01/13 07:02:47;;;;;;;130.18;25.98;;;4.70;99.90;;;;;;5114095;28;20067;-69
2022/01/13 07:05:13;;;;;;;147.77;28.20;;;4.60;99.90;;;;;;5108246;28;20047;-70
2022/01/13 07:07:40;;;;;;;132.68;26.15;;;4.60;99.90;;;;;;5118255;28;20047;-70
2022/01/13 07:10:08;;;;;;;128.85;26.42;;;4.70;99.90;;;;;;5119248;28;20393;-70
2022/01/13 07:12:33;;;;;;;139.05;26.63;;;4.80;99.90;;;;;;5106361;28;20046;-70
2022/01/13 07:14:59;;;;;;;137.88;26.33;;;4.80;99.90;;;;;;5133979;27;20122;-70
2022/01/13 07:17:25;;;;;;;143.52;26.55;;;4.80;99.90;;;;;;5106356;27;20138;-70
2022/01/13 07:19:51;;;;;;;158.10;28.10;;;4.90;99.90;;;;;;5101186;28;20041;-69
2022/01/13 07:22:18;;;;;;;167.18;27.65;;;4.70;99.90;;;;;;5109374;27;20047;-68
2022/01/13 07:24:46;;;;;;;149.95;25.70;;;4.80;99.90;;;;;;5100090;28;20055;-68
2022/01/13 07:27:11;;;;;;;148.77;28.02;;;4.90;99.90;;;;;;5123046;27;20055;-68
2022/01/13 07:29:39;;;;;;;171.10;27.67;;;4.80;99.90;;;;;;5100087;28;20143;-68
2022/01/13 07:32:06;;;;;;;156.07;29.70;;;4.80;99.90;;;;;;5107222;27;20074;-69
2022/01/13 07:34:33;;;;;;;151.82;27.25;;;4.90;99.90;;;;;;5081483;28;20046;-69
2022/01/13 07:36:59;;;;;;;155.98;27.52;;;4.90;99.90;;;;;;5102913;27;20050;-68
2022/01/13 07:39:24;;;;;;;164.32;26.60;;;4.90;99.90;;;;;;5100880;28;20044;-68
2022/01/13 07:41:50;;;;;;;144.57;26.45;;;4.80;99.90;;;;;;5103789;27;20051;-68
2022/01/13 07:44:18;;;;;;;133.63;23.60;;;4.90;99.90;;;;;;5100843;28;20040;-68
2022/01/13 07:46:44;;;;;;;179.02;26.92;;;5.00;99.90;;;;;;5100781;27;20139;-68
2022/01/13 07:49:09;;;;;;;162.40;25.35;;;4.80;99.90;;;;;;5106007;28;20138;-62
2022/01/13 07:51:35;;;;;;;125.93;24.23;;;4.80;99.90;;;;;;5099859;27;20462;-63
2022/01/13 07:54:01;;;;;;;141.82;25.17;;;4.90;99.90;;;;;;5104779;28;20098;-63
2022/01/13 07:56:28;;;;;;;163.73;25.83;;;4.80;99.90;;;;;;5115794;27;20067;-63
2022/01/13 07:58:55;;;;;;;154.32;25.38;;;4.70;99.90;;;;;;5118400;27;20066;-63
2022/01/13 08:01:21;;;;;;;141.95;25.17;;;4.80;99.90;;;;;;5114581;27;20521;-63
2022/01/13 08:03:47;;;;;;;152.70;26.05;;;4.90;99.90;;;;;;5109171;28;20097;-63
2022/01/13 08:06:14;;;;;;;131.40;24.88;;;4.80;99.90;;;;;;5087430;28;20035;-63
2022/01/13 08:08:40;;;;;;;152.07;26.02;;;4.90;99.90;;;;;;5124320;27;20044;-63
2022/01/13 08:11:08;;;;;;;137.95;26.08;;;4.90;99.90;;;;;;5111933;27;20059;-63
2022/01/13 08:13:35;;;;;;;142.98;25.00;;;4.80;99.90;;;;;;5121675;27;20055;-63
2022/01/13 08:16:03;;;;;;;136.82;25.23;;;4.80;99.90;;;;;;5114184;27;20055;-63
2022/01/13 08:21:13;;;;;;;139.55;26.95;;;4.90;99.90;;;;;;5096010;27;20433;-63
2022/01/13 08:23:39;;;;;;;158.57;26.92;;;4.80;99.90;;;;;;5109594;28;20047;-63
2022/01/13 08:26:05;;;;;;;153.18;27.80;;;4.90;99.90;;;;;;5112382;27;20055;-63
2022/01/13 08:28:31;;;;;;;133.48;25.92;;;5.00;99.90;;;;;;5126169;27;20071;-63
2022/01/13 08:30:57;;;;;;;130.50;25.63;;;4.80;99.90;;;;;;5108208;27;20065;-63
2022/01/13 08:33:23;;;;;;;137.00;26.20;;;5.00;99.90;;;;;;5129628;27;20035;-63
2022/01/13 08:35:51;;;;;;;136.98;26.33;;;4.90;99.90;;;;;;5098401;27;20079;-63
2022/01/13 08:38:18;;;;;;;140.50;26.27;;;4.90;99.90;;;;;;5112436;28;20047;-63
2022/01/13 08:40:49;;;;;;;129.90;25.15;;;5.10;99.90;;;;;;5125018;27;20362;-63
2022/01/13 08:43:15;;;;;;;;;;;5.10;99.90;;;;;;5112347;28;20063;-63
2022/01/13 08:45:41;;;;;;;127.63;24.58;;;5.00;99.90;;;;;;5108568;27;19934;-63
2022/01/13 08:48:07;;;;;;;137.40;26.35;;;5.00;99.90;;;;;;5131559;27;20408;-63
2022/01/13 08:50:33;;;;;;;122.72;25.52;;;5.10;99.90;;;;;;5088822;28;20043;-63
2022/01/13 08:52:59;;;;;;;122.05;26.80;;;5.00;99.90;;;;;;5131129;27;20095;-63
2022/01/13 08:55:26;;;;;;;126.47;24.55;;;5.00;99.90;;;;;;5099066;28;20070;-63
2022/01/13 08:57:52;;;;;;;132.32;26.23;;;5.20;99.90;;;;;;5105223;28;20253;-63
2022/01/13 09:00:18;;;;;;;118.07;25.88;;;5.20;99.90;;;;;;5117787;28;20056;-63
2022/01/13 09:02:44;;;;;;;129.05;28.50;;;5.10;99.90;;;;;;5124857;28;20043;-63
2022/01/13 09:05:15;;;;;;;131.27;26.00;;;5.10;99.90;;;;;;5100688;28;20077;-63
2022/01/13 09:07:41;;;;;;;123.97;24.15;;;5.20;99.90;;;;;;5106038;28;20090;-63
2022/01/13 09:10:08;;;;;;;152.27;27.63;;;5.10;99.90;;;;;;5096282;28;20039;-63
2022/01/13 09:12:34;;;;;;;149.18;28.05;;;5.30;99.90;;;;;;5121886;28;20454;-63
2022/01/13 09:15:14;;;;;;;148.00;27.25;;;5.30;99.90;;;;;;5115783;28;20278;-63
2022/01/13 09:17:42;;;;;;;144.88;26.63;;;5.20;99.90;;;;;;5116896;28;20169;-62
2022/01/13 09:20:10;;;;;;;133.35;27.75;;;5.30;99.90;;;;;;5116287;28;20070;-63
2022/01/13 09:22:35;;;;;;;152.00;27.90;;;5.30;99.90;;;;;;5106686;28;20043;-63
2022/01/13 09:25:01;;;;;;;135.27;28.05;;;5.30;99.90;;;;;;5117479;28;20065;-63
2022/01/13 09:27:27;;;;;;;157.27;28.40;;;5.30;99.90;;;;;;5120847;28;20058;-63
2022/01/13 09:29:52;;;;;;;160.00;27.17;;;5.20;99.90;;;;;;5117399;28;20048;-62
2022/01/13 09:32:18;;;;;;;133.90;26.20;;;5.20;99.90;;;;;;5099557;28;20055;-62
2022/01/13 09:34:44;;;;;;;162.95;29.42;;;5.30;99.90;;;;;;5107191;28;20041;-62
2022/01/13 09:37:11;;;;;;;148.80;26.52;;;5.40;99.90;;;;;;5116930;27;20047;-63
2022/01/13 09:39:37;;;;;;;131.80;26.85;;;5.40;99.90;;;;;;5113292;28;20046;-63
2022/01/13 09:42:04;;;;;;;152.95;27.20;;;5.40;99.90;;;;;;5116575;28;20055;-63
2022/01/13 09:44:31;;;;;;;146.30;26.90;;;5.50;99.90;;;;;;5122154;28;20074;-62
2022/01/13 09:46:56;;;;;;;141.20;26.55;;;5.40;99.90;;;;;;5122013;27;20082;-63
2022/01/13 09:49:22;;;;;;;153.85;27.58;;;5.30;99.90;;;;;;5093450;28;20043;-64
2022/01/13 09:51:48;;;;;;;137.13;25.77;;;5.30;99.90;;;;;;5115078;28;20052;-64
2022/01/13 09:54:16;;;;;;;146.05;28.42;;;5.40;99.90;;;;;;5104773;28;20035;-64
2022/01/13 09:56:42;;;;;;;162.80;26.48;;;5.30;99.90;;;;;;5112914;28;20067;-64
2022/01/13 09:59:08;;;;;;;154.38;27.02;;;5.40;99.90;;;;;;5123369;28;20053;-64
2022/01/13 10:01:34;;;;;;;169.88;28.67;;;5.30;99.90;;;;;;5110177;27;20116;-64
2022/01/13 10:03:59;;;;;;;172.70;28.00;;;5.40;99.90;;;;;;5124243;28;20043;-64
2022/01/13 10:06:25;;;;;;;150.88;29.10;;;5.40;99.90;;;;;;5113842;27;20505;-64
2022/01/13 10:08:58;;;;;;;132.10;28.17;;;5.30;99.90;;;;;;5125020;27;20043;-64
2022/01/13 10:11:37;;;;;;;159.75;27.52;;;5.50;99.90;;;;;;5117431;27;20051;-64
2022/01/13 10:14:05;;;;;;;162.95;28.00;;;5.50;99.90;;;;;;5126122;27;20059;-64
2022/01/13 10:16:32;;;;;;;155.85;27.77;;;5.50;99.90;;;;;;5140143;27;20106;-64
2022/01/13 10:18:57;;;;;;;162.38;29.25;;;5.60;99.90;;;;;;5121729;27;20035;-64
2022/01/13 10:21:23;;;;;;;157.57;29.77;;;5.60;99.90;;;;;;5116576;27;20104;-64
2022/01/13 10:24:12;;;;;;;131.30;27.40;;;5.40;99.90;;;;;;5129337;27;20051;-64
2022/01/13 10:26:40;;;;;;;139.68;27.25;;;5.50;99.90;;;;;;5113699;27;20062;-64
2022/01/13 10:29:08;;;;;;;152.88;28.98;;;5.50;99.90;;;;;;5137768;27;20093;-64
2022/01/13 10:31:52;;;;;;;140.07;28.55;;;5.60;99.90;;;;;;5121321;27;20046;-64
2022/01/13 10:34:26;;;;;;;120.95;25.73;;;5.60;99.90;;;;;;5126775;27;20032;-64
2022/01/13 10:37:14;;;;;;;127.00;27.17;;;5.60;99.90;;;;;;5113998;27;20080;-64
2022/01/13 10:40:03;;;;;;;127.38;25.23;;;5.70;99.90;;;;;;5127386;27;20035;-64
2022/01/13 10:45:17;;;;;;;113.80;25.40;;;5.80;99.90;;;;;;5121512;27;20051;-64
2022/01/13 10:48:13;;;;;;;126.70;26.80;;;5.70;99.90;;;;;;5138920;27;20100;-64
2022/01/13 10:50:42;;;;;;;95.57;25.27;;;5.70;99.90;;;;;;5099047;28;20055;-64
2022/01/13 10:53:18;;;;;;;116.03;27.35;;;5.80;99.90;;;;;;5133251;27;20064;-65
2022/01/13 10:55:59;;;;;;;108.15;25.27;;;5.90;99.90;;;;;;5117679;27;20054;-64
2022/01/13 10:58:28;;;;;;;118.53;26.00;;;5.80;99.90;;;;;;5087736;28;20120;-64
2022/01/13 11:00:56;;;;;;;108.50;25.98;;;5.70;99.90;;;;;;5151039;27;20280;-64
2022/01/13 11:03:25;;;;;;;118.28;25.95;;;5.70;99.90;;;;;;5091476;28;20086;-64
2022/01/13 11:05:56;;;;;;;99.18;24.92;;;5.70;99.90;;;;;;5119585;28;20039;-64
2022/01/13 11:08:33;;;;;;;113.95;26.67;;;5.90;99.90;;;;;;5089699;28;20479;-65
2022/01/13 11:11:02;;;;;;;114.82;26.60;;;5.90;99.90;;;;;;5109482;28;20048;-65
2022/01/13 11:13:30;;;;;;;104.20;25.90;;;5.80;99.90;;;;;;5134091;27;20088;-64
2022/01/13 11:15:57;;;;;;;100.30;24.77;;;5.90;99.90;;;;;;5120427;28;20050;-64
2022/01/13 11:18:26;;;;;;;90.07;24.95;;;5.80;99.90;;;;;;5123242;27;20100;-65
2022/01/13 11:20:52;;;;;;;98.50;26.65;;;5.90;99.90;;;;;;5112179;28;20096;-64
2022/01/13 11:23:19;;;;;;;100.32;27.23;;;5.90;99.90;;;;;;5104087;27;20093;-65
2022/01/13 11:25:47;;;;;;;76.95;22.27;;;6.00;99.90;;;;;;5114605;28;20039;-64
2022/01/13 11:28:13;;;;;;;89.63;25.40;;;6.00;99.90;;;;;;5099219;27;20047;-64
2022/01/13 11:30:40;;;;;;;86.25;24.58;;;5.90;99.90;;;;;;5120404;28;20051;-64
2022/01/13 11:33:06;;;;;;;79.10;23.90;;;6.10;99.90;;;;;;5096016;28;20314;-64
2022/01/13 11:35:38;;;;;;;87.90;25.50;;;6.00;99.90;;;;;;5099891;28;20056;-64
2022/01/13 11:38:05;;;;;;;81.35;23.50;;;6.00;99.90;;;;;;5124072;27;20043;-64
2022/01/13 11:40:37;;;;;;;76.53;22.33;;;5.90;99.90;;;;;;5117622;28;20078;-64
2022/01/13 11:43:05;;;;;;;87.95;24.25;;;6.00;99.90;;;;;;5116394;27;20051;-64
2022/01/13 11:45:39;;;;;;;73.43;23.27;;;5.90;99.90;;;;;;5118866;28;20040;-65
2022/01/13 11:48:17;;;;;;;78.75;23.23;;;5.90;99.90;;;;;;5123764;27;20054;-64
2022/01/13 11:50:53;;;;;;;79.82;23.80;;;5.90;99.90;;;;;;5131789;27;20054;-65
2022/01/13 11:53:31;;;;;;;73.57;23.02;;;5.80;99.90;;;;;;5125371;27;20043;-65
2022/01/13 11:56:07;;;;;;;83.05;24.95;;;6.10;99.90;;;;;;5128141;27;20052;-64
2022/01/13 11:58:45;;;;;;;82.82;23.48;;;5.90;99.90;;;;;;5119739;27;20044;-65
2022/01/13 12:01:25;;;;;;;74.45;24.33;;;5.90;99.90;;;;;;5113592;28;20047;-65
2022/01/13 12:04:03;;;;;;;78.32;24.70;;;5.90;99.90;;;;;;5115732;28;20136;-64
2022/01/13 12:06:35;;;;;;;72.38;22.63;;;5.90;99.90;;;;;;5111811;27;20143;-65
2022/01/13 12:09:03;;;;;;;81.68;23.60;;;6.00;99.90;;;;;;5131038;27;20043;-65
2022/01/13 12:11:37;;;;;;;92.72;25.77;;;6.00;99.90;;;;;;5108747;27;20056;-65
2022/01/13 12:14:23;;;;;;;79.60;26.13;;;5.90;99.90;;;;;;5129565;27;20492;-64
2022/01/13 12:16:50;;;;;;;79.75;24.92;;;6.00;99.90;;;;;;5103790;27;20039;-65
2022/01/13 12:19:33;;;;;;;91.55;25.95;;;5.80;99.90;;;;;;5110160;28;20326;-65
2022/01/13 12:22:04;;;;;;;92.80;26.48;;;6.00;99.90;;;;;;5075327;27;20562;-64
2022/01/13 12:24:53;;;;;;;91.00;25.85;;;6.10;99.90;;;;;;5127410;27;20107;-64
2022/01/13 12:27:43;;;;;;;93.60;27.33;;;5.90;99.90;;;;;;5120082;27;20062;-65
2022/01/13 12:30:20;;;;;;;88.22;25.90;;;6.00;99.90;;;;;;5117503;27;20035;-64
2022/01/13 12:33:00;;;;;;;94.63;25.60;;;6.00;99.90;;;;;;5130330;27;20047;-64
2022/01/13 12:35:33;;;;;;;95.88;26.23;;;6.00;99.90;;;;;;5103555;27;20107;-64
2022/01/13 12:38:09;;;;;;;91.15;25.05;;;6.10;99.90;;;;;;5130030;27;20131;-64
2022/01/13 12:40:40;;;;;;;104.55;27.08;;;6.00;99.90;;;;;;5107073;27;20044;-64
2022/01/13 12:43:21;;;;;;;105.25;26.38;;;6.00;99.90;;;;;;5128155;27;20297;-64
2022/01/13 12:45:47;;;;;;;113.80;27.15;;;5.90;99.90;;;;;;5110995;27;20056;-64
2022/01/13 12:48:13;;;;;;;98.15;26.48;;;6.00;99.90;;;;;;5123164;27;20046;-64
2022/01/13 12:50:40;;;;;;;116.28;29.25;;;6.00;99.90;;;;;;5118505;27;20338;-64
2022/01/13 12:53:26;;;;;;;115.20;30.35;;;5.90;99.90;;;;;;5117316;27;20045;-64
2022/01/13 12:55:57;;;;;;;108.90;29.70;;;5.90;99.90;;;;;;5111765;28;20054;-65
2022/01/13 12:58:29;;;;;;;114.88;29.63;;;6.10;99.90;;;;;;5109375;27;20058;-65
2022/01/13 13:01:00;;;;;;;125.53;30.23;;;5.90;99.90;;;;;;5109217;28;20142;-64
2022/01/13 13:03:26;;;;;;;126.65;30.90;;;5.90;99.90;;;;;;5141062;27;20137;-65
2022/01/13 13:05:52;;;;;;;125.68;31.73;;;6.00;99.90;;;;;;5118993;28;20407;-64
2022/01/13 13:08:20;;;;;;;136.38;33.50;;;6.10;99.90;;;;;;5128774;27;20043;-64
2022/01/13 13:10:49;;;;;;;135.68;32.08;;;6.10;99.90;;;;;;5116271;28;20092;-64
2022/01/13 13:13:17;;;;;;;140.80;32.47;;;6.10;99.90;;;;;;5126124;27;20055;-64